createdAt,value
2023-01-22T01:17:02.893Z,29.80
2023-01-22T01:20:39.369Z,29.80
2023-01-22T01:27:33.852Z,29.90
2023-01-22T01:39:20.522Z,29.80
2023-01-22T02:02:28.204Z,29.80
2023-01-22T02:05:52.877Z,29.80
2023-01-22T02:09:22.240Z,29.80
2023-01-22T02:12:52.275Z,29.80
2023-01-22T02:16:29.051Z,29.80
2023-01-22T02:20:17.186Z,29.90
2023-01-22T02:24:11.031Z,29.80
2023-01-22T02:27:35.055Z,29.80
2023-01-22T02:31:11.157Z,29.80
2023-01-22T02:34:59.124Z,29.80
2023-01-22T02:38:35.141Z,29.90
2023-01-22T02:42:29.174Z,29.90
2023-01-22T02:45:40.623Z,29.80
2023-01-22T02:48:45.011Z,29.80
2023-01-22T02:51:52.667Z,29.80
2023-01-22T02:54:53.275Z,29.80
2023-01-22T02:58:04.731Z,29.80
2023-01-22T03:01:10.798Z,29.90
2023-01-22T03:04:22.798Z,29.90
2023-01-22T03:07:29.403Z,29.90
2023-01-22T03:10:35.401Z,29.90
2023-01-22T03:13:47.438Z,29.90
2023-01-22T03:17:04.901Z,29.80
2023-01-22T03:20:17.192Z,29.90
2023-01-22T03:23:23.531Z,29.80
2023-01-22T03:26:28.992Z,29.80
2023-01-22T03:29:41.019Z,29.80
2023-01-22T03:32:44.795Z,29.90
2023-01-22T03:35:53.065Z,29.90
2023-01-22T03:38:53.687Z,29.90
2023-01-22T03:41:59.687Z,29.80
2023-01-22T03:45:11.153Z,29.80
2023-01-22T03:48:11.739Z,29.80
2023-01-22T03:51:17.242Z,29.80
2023-01-22T03:54:23.226Z,29.80
2023-01-22T03:57:20.681Z,29.80
2023-01-22T04:00:29.867Z,29.90
2023-01-22T04:03:35.303Z,29.80
2023-01-22T04:06:41.336Z,29.80
2023-01-22T04:09:47.359Z,29.80
2023-01-22T04:12:53.394Z,29.80
2023-01-22T04:16:11.443Z,29.90
2023-01-22T04:19:18.021Z,29.90
2023-01-22T04:22:23.485Z,29.90
2023-01-22T04:25:29.530Z,29.90
2023-01-22T04:28:35.552Z,29.90
2023-01-22T04:31:48.185Z,29.90
2023-01-22T04:34:54.165Z,29.90
2023-01-22T04:38:00.200Z,29.90
2023-01-22T04:41:05.670Z,29.90
2023-01-22T04:44:12.287Z,29.90
2023-01-22T04:47:23.736Z,29.90
2023-01-22T04:50:30.338Z,29.90
2023-01-22T04:53:35.799Z,29.90
2023-01-22T04:56:41.828Z,29.90
2023-01-22T04:59:46.827Z,29.90
2023-01-22T05:02:59.887Z,29.90
2023-01-22T05:06:05.926Z,29.90
2023-01-22T05:09:12.499Z,29.90
2023-01-22T05:12:17.986Z,29.90
2023-01-22T05:15:42.574Z,29.80
2023-01-22T05:19:15.818Z,29.80
2023-01-22T05:22:48.627Z,29.80
2023-01-22T05:26:15.853Z,29.80
2023-01-22T05:29:48.686Z,29.80
2023-01-22T05:33:27.914Z,29.80
2023-01-22T05:37:06.766Z,29.80
2023-01-22T05:40:33.981Z,29.80
2023-01-22T05:44:06.820Z,29.80
2023-01-22T05:47:36.840Z,29.80
2023-01-22T05:51:10.142Z,29.80
2023-01-22T05:54:40.110Z,29.80
2023-01-22T05:58:06.256Z,29.80
2023-01-22T06:21:16.376Z,29.80
2023-01-22T06:24:46.416Z,29.80
2023-01-22T06:28:10.450Z,29.80
2023-01-22T06:31:50.202Z,29.80
2023-01-22T06:35:16.523Z,29.70
2023-01-22T06:38:54.464Z,30.20
2023-01-22T06:42:22.605Z,29.70
2023-01-22T07:15:18.775Z,29.70
2023-01-22T07:19:18.810Z,29.70
2023-01-22T07:22:51.820Z,29.70
2023-01-22T07:33:18.979Z,29.70
2023-01-22T07:36:48.958Z,29.70
2023-01-22T07:40:12.991Z,29.70
2023-01-22T07:43:49.031Z,29.70
2023-01-22T07:51:01.135Z,29.70
2023-01-22T07:54:31.133Z,29.70
2023-01-22T07:57:55.169Z,29.70
2023-01-22T08:22:00.518Z,29.70
2023-01-22T08:29:12.576Z,29.60
2023-01-22T08:43:19.632Z,29.60
2023-01-22T08:46:49.660Z,29.60
2023-01-22T09:01:01.868Z,29.50
2023-01-22T09:04:30.925Z,29.40
2023-01-22T09:08:01.868Z,29.50
2023-01-22T09:15:01.940Z,29.40
2023-01-22T09:18:31.967Z,29.30
2023-01-22T09:25:43.123Z,29.20
2023-01-22T09:32:43.172Z,29.20
2023-01-22T09:36:25.202Z,29.20
2023-01-22T09:39:55.234Z,29.20
2023-01-22T09:43:31.266Z,29.20
2023-01-22T09:47:02.221Z,29.10
2023-01-22T10:05:02.388Z,29.10
2023-01-22T10:08:26.401Z,29.00
2023-01-22T10:12:08.434Z,29.00
2023-01-22T10:56:13.934Z,28.90
2023-01-22T12:30:15.467Z,28.90
2023-01-22T12:50:44.692Z,28.90
2023-01-22T13:30:49.116Z,28.90
2023-01-22T13:34:25.045Z,28.90
2023-01-22T13:38:09.179Z,28.90
2023-01-22T13:41:42.242Z,28.90
2023-01-22T13:45:15.236Z,28.90
2023-01-22T13:48:51.269Z,29.40
2023-01-22T13:52:30.343Z,28.90
2023-01-22T13:55:48.372Z,28.90
2023-01-22T13:59:06.465Z,28.90
2023-01-22T14:02:13.128Z,28.90
2023-01-22T14:05:24.453Z,29.00
2023-01-22T14:08:54.480Z,28.90
2023-01-22T14:12:30.480Z,28.90
2023-01-22T14:16:09.484Z,28.90
2023-01-22T14:19:36.543Z,28.90
2023-01-22T14:22:54.600Z,28.90
2023-01-22T14:26:18.598Z,28.90
2023-01-22T14:29:30.664Z,28.90
2023-01-22T14:32:42.711Z,29.00
2023-01-22T14:35:48.724Z,29.00
2023-01-22T14:39:00.751Z,29.00
2023-01-22T14:42:12.736Z,29.00
2023-01-22T14:45:24.830Z,29.00
2023-01-22T14:48:30.826Z,29.00
2023-01-22T14:51:42.851Z,29.00
2023-01-22T14:54:48.874Z,29.00
2023-01-22T14:58:06.904Z,29.00
2023-01-22T15:01:18.948Z,29.00
2023-01-22T15:04:42.959Z,29.00
2023-01-22T15:08:11.090Z,29.00
2023-01-22T15:11:39.989Z,29.00
2023-01-22T15:18:43.041Z,29.00
2023-01-22T15:22:11.636Z,29.10
2023-01-22T15:25:40.104Z,29.00
2023-01-22T15:29:11.909Z,29.10
2023-01-22T15:32:43.161Z,29.10
2023-01-22T15:36:13.190Z,29.00
2023-01-22T15:39:40.221Z,29.00
2023-01-22T15:43:12.278Z,29.10
2023-01-22T15:46:43.295Z,29.10
2023-01-22T15:50:12.534Z,29.10
2023-01-22T15:53:43.336Z,29.00
2023-01-22T15:57:12.710Z,29.10
2023-01-22T16:00:40.444Z,29.20
2023-01-22T16:04:10.475Z,29.10
2023-01-22T16:07:37.447Z,29.10
2023-01-22T16:11:10.547Z,29.10
2023-01-22T16:14:40.575Z,29.10
2023-01-22T16:18:19.533Z,29.10
2023-01-22T16:21:49.559Z,29.10
2023-01-22T16:25:13.580Z,29.10
2023-01-22T18:34:15.810Z,29.30
2023-01-22T18:59:31.116Z,29.30
2023-01-22T19:06:19.366Z,29.30
2023-01-22T19:09:50.346Z,29.30
2023-01-22T19:13:26.380Z,29.30
2023-01-22T19:17:01.048Z,29.30
2023-01-22T19:20:26.438Z,29.30
2023-01-22T19:23:49.095Z,29.30
2023-01-22T19:27:19.135Z,29.30
2023-01-22T19:30:49.314Z,29.30
2023-01-22T19:34:20.555Z,29.30
2023-01-22T19:37:43.219Z,29.30
2023-01-22T19:41:07.261Z,29.30
2023-01-22T19:44:37.276Z,29.30
2023-01-22T19:48:07.310Z,29.30
2023-01-22T19:51:43.345Z,29.30
2023-01-22T19:55:07.369Z,29.30
2023-01-22T19:58:37.395Z,29.30
2023-01-22T20:02:01.446Z,29.30
2023-01-22T20:05:31.455Z,29.30
2023-01-22T20:09:07.490Z,29.30
2023-01-22T20:12:10.864Z,29.30
2023-01-22T20:15:16.439Z,29.30
2023-01-22T20:18:19.569Z,29.30
2023-01-22T20:21:20.934Z,29.30
2023-01-22T20:24:26.958Z,29.30
2023-01-22T20:27:28.925Z,29.30
2023-01-22T20:30:39.041Z,29.30
2023-01-22T20:33:45.035Z,29.30
2023-01-22T20:36:53.020Z,29.80
2023-01-22T20:40:09.088Z,29.30
2023-01-22T20:43:15.115Z,29.30
2023-01-22T20:46:27.139Z,29.30
2023-01-22T20:49:31.841Z,29.30
2023-01-22T20:52:33.190Z,29.30
2023-01-22T20:55:35.187Z,29.30
2023-01-22T20:58:39.241Z,29.30
2023-01-22T21:01:47.282Z,29.30
2023-01-22T21:04:57.290Z,29.30
2023-01-22T21:08:03.321Z,29.30
2023-01-22T21:11:21.348Z,29.30
2023-01-22T21:14:27.376Z,29.30
2023-01-22T21:17:35.378Z,29.30
2023-01-22T21:20:39.436Z,29.40
2023-01-22T21:23:41.434Z,29.30
2023-01-22T21:26:51.500Z,29.30
2023-01-22T21:29:59.500Z,29.40
2023-01-22T21:33:09.552Z,29.40
2023-01-22T21:36:15.572Z,29.40
2023-01-22T21:39:27.619Z,29.40
2023-01-22T21:42:41.626Z,29.40
2023-01-22T21:45:53.696Z,29.40
2023-01-22T21:48:57.676Z,29.40
2023-01-22T21:52:03.704Z,29.40
2023-01-22T21:55:11.731Z,29.40
2023-01-22T21:58:21.756Z,29.40
2023-01-22T22:01:26.484Z,29.40
2023-01-22T22:04:29.814Z,29.40
2023-01-22T22:07:32.547Z,29.40
2023-01-22T22:10:35.874Z,29.40
2023-01-22T22:13:44.599Z,29.40
2023-01-22T22:16:53.961Z,29.40
2023-01-22T22:19:59.963Z,29.40
2023-01-22T22:23:03.957Z,29.50
2023-01-22T22:26:09.979Z,29.50
2023-01-22T22:29:20.746Z,29.50
2023-01-22T22:32:22.044Z,29.50
2023-01-22T22:35:30.114Z,29.50
2023-01-22T22:38:32.840Z,29.50
2023-01-22T22:41:38.877Z,29.50
2023-01-22T22:44:46.138Z,29.50
2023-01-22T22:47:50.914Z,29.50
2023-01-22T22:50:52.245Z,29.50
2023-01-22T22:54:02.961Z,29.50
2023-01-22T22:57:06.322Z,29.50
2023-01-22T23:00:30.356Z,29.50
2023-01-22T23:03:52.391Z,29.50
2023-01-22T23:29:01.212Z,29.60
2023-01-22T23:36:45.731Z,29.60
2023-01-22T23:43:36.766Z,29.50
2023-01-22T23:47:06.809Z,29.50
2023-01-22T23:50:36.831Z,29.50
2023-01-22T23:53:57.755Z,29.50
2023-01-22T23:57:27.783Z,29.60
